sensor_id;sensor_type;location;lat;lon;timestamp;P1;durP1;ratioP1;P2;durP2;ratioP2
34900;SDS011;21112;51.976;5.660;2022-12-29T02:34:45;2.05;;;0.70;;
34900;SDS011;21112;51.976;5.660;2022-12-29T02:37:17;3.05;;;0.70;;
34900;SDS011;21112;51.976;5.660;2022-12-29T02:39:47;1.00;;;0.80;;
34900;SDS011;21112;51.976;5.660;2022-12-29T02:42:19;3.25;;;0.80;;
34900;SDS011;21112;51.976;5.660;2022-12-29T02:44:52;2.30;;;0.88;;
34900;SDS011;21112;51.976;5.660;2022-12-29T02:47:22;0.85;;;0.70;;
34900;SDS011;21112;51.976;5.660;2022-12-29T02:49:53;1.63;;;1.00;;
34900;SDS011;21112;51.976;5.660;2022-12-29T03:00:10;1.42;;;0.50;;
34900;SDS011;21112;51.976;5.660;2022-12-29T03:18:12;3.67;;;0.60;;
34900;SDS011;21112;51.976;5.660;2022-12-29T03:20:41;3.97;;;0.82;;
34900;SDS011;21112;51.976;5.660;2022-12-29T03:23:11;3.53;;;0.77;;
34900;SDS011;21112;51.976;5.660;2022-12-29T03:25:40;2.30;;;0.60;;
34900;SDS011;21112;51.976;5.660;2022-12-29T03:28:09;1.63;;;0.60;;
34900;SDS011;21112;51.976;5.660;2022-12-29T03:30:37;2.78;;;0.63;;
34900;SDS011;21112;51.976;5.660;2022-12-29T03:33:05;1.42;;;0.63;;
34900;SDS011;21112;51.976;5.660;2022-12-29T03:35:35;1.83;;;0.57;;
34900;SDS011;21112;51.976;5.660;2022-12-29T03:38:05;2.97;;;0.80;;
34900;SDS011;21112;51.976;5.660;2022-12-29T03:40:36;1.85;;;0.77;;
34900;SDS011;21112;51.976;5.660;2022-12-29T03:43:03;1.67;;;0.70;;
34900;SDS011;21112;51.976;5.660;2022-12-29T03:45:31;2.40;;;0.70;;
34900;SDS011;21112;51.976;5.660;2022-12-29T03:47:57;1.25;;;0.60;;
34900;SDS011;21112;51.976;5.660;2022-12-29T03:50:24;4.43;;;0.80;;
34900;SDS011;21112;51.976;5.660;2022-12-29T03:52:53;2.83;;;0.68;;
34900;SDS011;21112;51.976;5.660;2022-12-29T03:55:20;1.42;;;0.63;;
34900;SDS011;21112;51.976;5.660;2022-12-29T03:57:46;1.92;;;0.50;;
34900;SDS011;21112;51.976;5.660;2022-12-29T04:00:13;1.52;;;0.80;;
34900;SDS011;21112;51.976;5.660;2022-12-29T04:02:41;2.45;;;0.88;;
34900;SDS011;21112;51.976;5.660;2022-12-29T04:05:10;2.05;;;0.73;;
34900;SDS011;21112;51.976;5.660;2022-12-29T04:07:38;3.28;;;0.80;;
34900;SDS011;21112;51.976;5.660;2022-12-29T04:10:09;5.57;;;0.70;;
34900;SDS011;21112;51.976;5.660;2022-12-29T04:12:36;1.52;;;0.60;;
34900;SDS011;21112;51.976;5.660;2022-12-29T04:15:06;2.67;;;0.68;;
34900;SDS011;21112;51.976;5.660;2022-12-29T04:17:35;4.65;;;0.57;;
34900;SDS011;21112;51.976;5.660;2022-12-29T04:20:04;1.30;;;0.50;;
34900;SDS011;21112;51.976;5.660;2022-12-29T04:22:48;3.70;;;0.68;;
34900;SDS011;21112;51.976;5.660;2022-12-29T04:25:17;3.22;;;0.70;;
34900;SDS011;21112;51.976;5.660;2022-12-29T04:27:44;2.33;;;0.50;;
34900;SDS011;21112;51.976;5.660;2022-12-29T04:30:14;2.85;;;0.80;;
34900;SDS011;21112;51.976;5.660;2022-12-29T04:32:42;2.75;;;0.60;;
34900;SDS011;21112;51.976;5.660;2022-12-29T04:37:36;3.42;;;0.90;;
34900;SDS011;21112;51.976;5.660;2022-12-29T04:40:09;1.90;;;0.65;;
34900;SDS011;21112;51.976;5.660;2022-12-29T04:42:38;4.05;;;0.70;;
34900;SDS011;21112;51.976;5.660;2022-12-29T04:45:05;2.70;;;0.63;;
34900;SDS011;21112;51.976;5.660;2022-12-29T04:47:32;2.80;;;0.70;;
34900;SDS011;21112;51.976;5.660;2022-12-29T04:49:59;3.33;;;0.60;;
34900;SDS011;21112;51.976;5.660;2022-12-29T04:52:27;1.13;;;0.73;;
34900;SDS011;21112;51.976;5.660;2022-12-29T04:54:54;3.72;;;0.80;;
34900;SDS011;21112;51.976;5.660;2022-12-29T04:57:20;3.78;;;0.88;;
34900;SDS011;21112;51.976;5.660;2022-12-29T04:59:49;3.08;;;0.77;;
34900;SDS011;21112;51.976;5.660;2022-12-29T05:02:16;1.38;;;0.57;;
34900;SDS011;21112;51.976;5.660;2022-12-29T05:04:43;2.22;;;0.70;;
34900;SDS011;21112;51.976;5.660;2022-12-29T05:07:09;4.15;;;0.77;;
34900;SDS011;21112;51.976;5.660;2022-12-29T05:09:36;2.88;;;0.70;;
34900;SDS011;21112;51.976;5.660;2022-12-29T05:12:03;3.08;;;0.60;;
34900;SDS011;21112;51.976;5.660;2022-12-29T05:14:32;2.65;;;0.68;;
34900;SDS011;21112;51.976;5.660;2022-12-29T05:17:03;1.63;;;0.40;;
34900;SDS011;21112;51.976;5.660;2022-12-29T05:19:31;4.43;;;0.65;;
34900;SDS011;21112;51.976;5.660;2022-12-29T05:21:57;1.30;;;0.50;;
34900;SDS011;21112;51.976;5.660;2022-12-29T05:24:24;2.05;;;0.60;;
34900;SDS011;21112;51.976;5.660;2022-12-29T05:26:51;1.98;;;0.73;;
34900;SDS011;21112;51.976;5.660;2022-12-29T05:29:27;4.78;;;0.85;;
34900;SDS011;21112;51.976;5.660;2022-12-29T05:31:57;2.30;;;0.80;;
34900;SDS011;21112;51.976;5.660;2022-12-29T05:34:25;2.80;;;0.70;;
34900;SDS011;21112;51.976;5.660;2022-12-29T05:36:51;2.45;;;0.80;;
34900;SDS011;21112;51.976;5.660;2022-12-29T05:39:18;5.05;;;0.90;;
34900;SDS011;21112;51.976;5.660;2022-12-29T05:41:45;4.93;;;0.80;;
34900;SDS011;21112;51.976;5.660;2022-12-29T05:44:12;5.80;;;0.88;;
34900;SDS011;21112;51.976;5.660;2022-12-29T05:46:39;4.00;;;0.70;;
34900;SDS011;21112;51.976;5.660;2022-12-29T05:49:05;6.82;;;1.08;;
34900;SDS011;21112;51.976;5.660;2022-12-29T05:51:34;2.03;;;0.65;;
34900;SDS011;21112;51.976;5.660;2022-12-29T05:54:04;3.00;;;0.70;;
34900;SDS011;21112;51.976;5.660;2022-12-29T05:56:33;4.90;;;0.90;;
34900;SDS011;21112;51.976;5.660;2022-12-29T05:59:01;3.90;;;1.10;;
34900;SDS011;21112;51.976;5.660;2022-12-29T06:01:37;3.40;;;0.85;;
34900;SDS011;21112;51.976;5.660;2022-12-29T06:04:05;5.63;;;1.10;;
34900;SDS011;21112;51.976;5.660;2022-12-29T06:06:38;4.40;;;0.85;;
34900;SDS011;21112;51.976;5.660;2022-12-29T06:09:09;5.05;;;0.90;;
34900;SDS011;21112;51.976;5.660;2022-12-29T06:11:40;2.15;;;0.80;;
34900;SDS011;21112;51.976;5.660;2022-12-29T06:14:10;4.53;;;1.20;;
34900;SDS011;21112;51.976;5.660;2022-12-29T06:16:40;3.35;;;1.00;;
34900;SDS011;21112;51.976;5.660;2022-12-29T06:19:19;4.18;;;1.00;;
34900;SDS011;21112;51.976;5.660;2022-12-29T06:21:49;2.88;;;0.70;;
34900;SDS011;21112;51.976;5.660;2022-12-29T06:24:20;3.42;;;0.90;;
34900;SDS011;21112;51.976;5.660;2022-12-29T06:26:46;4.40;;;1.10;;
34900;SDS011;21112;51.976;5.660;2022-12-29T06:29:14;2.88;;;0.77;;
34900;SDS011;21112;51.976;5.660;2022-12-29T06:31:45;4.03;;;0.77;;
34900;SDS011;21112;51.976;5.660;2022-12-29T06:34:15;6.43;;;0.75;;
34900;SDS011;21112;51.976;5.660;2022-12-29T06:36:55;3.97;;;0.90;;
34900;SDS011;21112;51.976;5.660;2022-12-29T06:39:28;6.80;;;1.23;;
34900;SDS011;21112;51.976;5.660;2022-12-29T06:42:11;4.20;;;1.00;;
34900;SDS011;21112;51.976;5.660;2022-12-29T06:44:46;5.15;;;1.13;;
34900;SDS011;21112;51.976;5.660;2022-12-29T06:47:20;2.42;;;0.80;;
34900;SDS011;21112;51.976;5.660;2022-12-29T06:49:47;4.45;;;1.02;;
34900;SDS011;21112;51.976;5.660;2022-12-29T06:52:37;8.25;;;0.82;;
34900;SDS011;21112;51.976;5.660;2022-12-29T06:55:21;7.07;;;1.20;;
34900;SDS011;21112;51.976;5.660;2022-12-29T06:58:13;4.10;;;1.08;;
34900;SDS011;21112;51.976;5.660;2022-12-29T07:01:06;8.55;;;1.30;;
34900;SDS011;21112;51.976;5.660;2022-12-29T07:03:51;6.97;;;1.30;;
34900;SDS011;21112;51.976;5.660;2022-12-29T07:06:48;4.25;;;0.88;;
34900;SDS011;21112;51.976;5.660;2022-12-29T07:13:40;2.93;;;0.70;;
34900;SDS011;21112;51.976;5.660;2022-12-29T07:16:42;3.38;;;1.00;;
34900;SDS011;21112;51.976;5.660;2022-12-29T07:19:58;3.28;;;0.90;;
34900;SDS011;21112;51.976;5.660;2022-12-29T07:26:27;4.25;;;1.02;;
34900;SDS011;21112;51.976;5.660;2022-12-29T07:39:32;3.92;;;0.70;;
34900;SDS011;21112;51.976;5.660;2022-12-29T07:45:22;5.68;;;0.82;;
34900;SDS011;21112;51.976;5.660;2022-12-29T07:48:11;1.95;;;0.77;;
34900;SDS011;21112;51.976;5.660;2022-12-29T07:54:31;2.85;;;0.57;;
34900;SDS011;21112;51.976;5.660;2022-12-29T07:57:28;3.95;;;0.85;;
34900;SDS011;21112;51.976;5.660;2022-12-29T08:02:47;6.20;;;0.93;;
34900;SDS011;21112;51.976;5.660;2022-12-29T08:05:49;5.68;;;1.10;;
34900;SDS011;21112;51.976;5.660;2022-12-29T08:54:22;4.53;;;0.93;;
34900;SDS011;21112;51.976;5.660;2022-12-29T11:41:20;12.60;;;1.70;;
34900;SDS011;21112;51.976;5.660;2022-12-29T11:46:10;5.60;;;1.23;;
34900;SDS011;21112;51.976;5.660;2022-12-29T11:47:28;5.97;;;1.45;;
34900;SDS011;21112;51.976;5.660;2022-12-29T12:01:30;9.18;;;1.83;;
34900;SDS011;21112;51.976;5.660;2022-12-29T12:04:12;9.85;;;2.00;;
34900;SDS011;21112;51.976;5.660;2022-12-29T12:07:10;11.00;;;1.90;;
